Disclaimer

Please do not use the information listed here in-flight or in-navigation, as they are not provided to us by the airports but are provided by volunteers, so they might be outdated.

Search


Regions


Airport information page

Radio informations:
Tower (TWR) - 118.75 MHz
Ground (GND) - 121.6 MHz
Automatic Terminal Information Service (ATIS) - 126.85 MHz
JAKARTA APP - 119.75 MHz

Airport informations:
Latitude: 06° 07' 32.04" S
Longitude: 106° 39' 21.23" E
Elevation: 34 feet - 10 meters
Operating hours: N/A
Operating agency: Civil government, landing fees and diplomatic clearance may be required
Timezone: UTC+7
Fuel: Jet A1, without icing nhibitor.

100/130 octane gasoline, leaded, MIL-L-5572F (GREEN)

Runway information:
07R/25L - 12008 x 197 feet< - >3660 x 60 meters
07L/25R - 11812 x 197 feet< - >3600 x 60 meters

Recent METARs:
WIII 182330Z 21005KT 3200 HZ FEW020 26/23 Q1012 NOSIG
WIII 182330Z 21005KT 3200 HZ FEW020 26/23 Q1012 NOSIG
WIII 190030Z 24005KT 3000 HZ FEW020 27/23 Q1012 NOSIG

Airport on the map: